createdAt,value
2023-04-01T00:00:17.595Z,45.30
2023-04-01T00:01:17.891Z,46.60
2023-04-01T00:02:17.612Z,45.90
2023-04-01T00:03:17.796Z,47.50
2023-04-01T00:04:17.618Z,47.30
2023-04-01T00:05:17.587Z,48.60
2023-04-01T00:06:17.591Z,47.30
2023-04-01T00:07:17.586Z,47.60
2023-04-01T00:08:17.584Z,46.20
2023-04-01T00:09:17.583Z,46.70
2023-04-01T00:10:17.578Z,46.80
2023-04-01T00:11:17.582Z,47.10
2023-04-01T00:12:17.583Z,46.80
2023-04-01T00:13:17.578Z,45.70
2023-04-01T00:14:17.586Z,48.30
2023-04-01T00:15:17.595Z,46.80
2023-04-01T00:16:22.190Z,47.00
2023-04-01T00:17:17.571Z,45.50
2023-04-01T00:18:17.563Z,47.00
2023-04-01T00:19:17.588Z,46.50
2023-04-01T00:20:17.564Z,47.40
2023-04-01T00:21:17.572Z,47.40
2023-04-01T00:22:17.555Z,45.20
2023-04-01T00:23:17.556Z,47.20
2023-04-01T00:24:17.566Z,47.50
2023-04-01T00:25:17.559Z,46.70
2023-04-01T00:26:17.563Z,47.70
2023-04-01T00:27:17.553Z,48.30
2023-04-01T00:28:17.551Z,50.00
2023-04-01T00:29:17.561Z,47.30
2023-04-01T00:30:17.544Z,47.40
2023-04-01T00:31:17.666Z,46.80
2023-04-01T00:32:17.542Z,48.00
2023-04-01T00:33:17.578Z,46.70
2023-04-01T00:34:17.537Z,47.50
2023-04-01T00:35:17.564Z,48.00
2023-04-01T00:36:17.552Z,47.80
2023-04-01T00:37:17.545Z,48.50
2023-04-01T00:38:17.540Z,48.10
2023-04-01T00:39:17.549Z,48.40
2023-04-01T00:40:17.535Z,48.50
2023-04-01T00:41:17.533Z,47.90
2023-04-01T00:42:17.533Z,48.20
2023-04-01T00:43:17.527Z,48.80
2023-04-01T00:44:17.532Z,47.80
2023-04-01T00:45:17.527Z,49.70
2023-04-01T00:46:17.556Z,47.70
2023-04-01T00:47:17.529Z,47.80
2023-04-01T00:48:17.518Z,49.00
2023-04-01T00:49:17.529Z,47.80
2023-04-01T00:50:17.517Z,48.00
2023-04-01T00:51:17.548Z,49.50
2023-04-01T00:52:17.520Z,47.30
2023-04-01T00:53:17.522Z,48.40
2023-04-01T00:54:17.508Z,48.50
2023-04-01T00:55:17.524Z,47.80
2023-04-01T00:56:17.512Z,49.20
2023-04-01T00:57:17.591Z,48.00
2023-04-01T00:58:17.505Z,47.00
2023-04-01T00:59:17.513Z,48.00
2023-04-01T01:00:17.505Z,47.40
2023-04-01T01:01:17.587Z,47.60
2023-04-01T01:02:17.533Z,48.00
2023-04-01T01:03:17.531Z,47.40
2023-04-01T01:04:17.501Z,45.70
2023-04-01T01:05:17.495Z,49.60
2023-04-01T01:06:17.490Z,52.00
2023-04-01T01:07:17.529Z,50.00
2023-04-01T01:08:17.486Z,51.20
2023-04-01T01:09:17.498Z,51.20
2023-04-01T01:10:17.486Z,50.30
2023-04-01T01:11:17.990Z,50.70
2023-04-01T01:12:17.487Z,52.10
2023-04-01T01:13:17.485Z,51.20
2023-04-01T01:14:17.476Z,51.20
2023-04-01T01:15:17.495Z,50.90
2023-04-01T01:16:17.499Z,52.20
2023-04-01T01:17:17.471Z,53.50
2023-04-01T01:18:17.509Z,52.10
2023-04-01T01:19:17.478Z,52.10
2023-04-01T01:20:25.980Z,52.60
2023-04-01T01:21:17.462Z,50.70
2023-04-01T01:22:17.466Z,52.30
2023-04-01T01:23:17.492Z,50.50
2023-04-01T01:24:17.459Z,52.10
2023-04-01T01:25:17.478Z,50.80
2023-04-01T01:26:17.461Z,50.60
2023-04-01T01:27:17.462Z,51.60
2023-04-01T01:28:17.454Z,51.00
2023-04-01T01:29:17.461Z,50.10
2023-04-01T01:30:17.450Z,49.50
2023-04-01T01:31:17.483Z,51.60
2023-04-01T01:32:17.445Z,50.60
2023-04-01T01:33:17.452Z,50.60
2023-04-01T01:34:17.448Z,51.80
2023-04-01T01:35:17.449Z,52.60
2023-04-01T01:36:17.452Z,51.00
2023-04-01T01:37:17.450Z,51.50
2023-04-01T01:38:17.434Z,50.70
2023-04-01T01:39:17.462Z,52.10
2023-04-01T01:40:17.429Z,52.40
2023-04-01T01:41:17.434Z,51.80
2023-04-01T01:42:17.428Z,50.40
2023-04-01T01:43:17.429Z,52.10
2023-04-01T01:44:17.427Z,52.50
2023-04-01T01:45:17.430Z,53.20
2023-04-01T01:46:17.502Z,53.30
2023-04-01T01:47:17.422Z,53.50
2023-04-01T01:48:17.429Z,52.20
2023-04-01T01:49:17.420Z,52.80
2023-04-01T01:50:17.412Z,52.60
2023-04-01T01:51:17.418Z,52.40
2023-04-01T01:52:17.408Z,50.70
2023-04-01T01:53:17.421Z,51.90
2023-04-01T01:54:17.406Z,52.80
2023-04-01T01:55:17.430Z,52.10
2023-04-01T01:56:17.406Z,52.80
2023-04-01T01:57:17.462Z,51.80
2023-04-01T01:58:17.407Z,52.30
2023-04-01T01:59:17.402Z,50.50
2023-04-01T02:00:17.414Z,52.20
2023-04-01T02:01:17.427Z,51.20
2023-04-01T02:02:17.394Z,51.30
2023-04-01T02:03:17.389Z,50.30
2023-04-01T02:04:17.436Z,50.10
2023-04-01T02:05:17.383Z,49.70
2023-04-01T02:06:17.389Z,46.90
2023-04-01T02:07:17.385Z,49.00
2023-04-01T02:08:17.409Z,49.80
2023-04-01T02:09:17.382Z,48.60
2023-04-01T02:10:17.381Z,48.70
2023-04-01T02:11:17.400Z,48.50
2023-04-01T02:12:17.377Z,48.50
2023-04-01T02:13:17.385Z,49.20
2023-04-01T02:14:17.394Z,48.90
2023-04-01T02:15:17.374Z,48.20
2023-04-01T02:16:17.405Z,49.40
2023-04-01T02:17:17.372Z,50.90
2023-04-01T02:18:17.369Z,49.10
2023-04-01T02:19:17.363Z,50.60
2023-04-01T02:20:17.368Z,50.50
2023-04-01T02:21:17.370Z,49.60
2023-04-01T02:22:17.373Z,49.30
2023-04-01T02:23:17.355Z,49.60
2023-04-01T02:24:17.356Z,50.70
2023-04-01T02:25:17.346Z,50.10
2023-04-01T02:26:17.367Z,51.50
2023-04-01T02:27:17.373Z,51.90
2023-04-01T02:28:17.364Z,50.30
2023-04-01T02:29:17.341Z,51.00
2023-04-01T02:30:17.343Z,50.10
2023-04-01T02:31:17.368Z,51.20
2023-04-01T02:32:17.351Z,51.20
2023-04-01T02:33:17.338Z,51.40
2023-04-01T02:34:17.357Z,50.80
2023-04-01T02:35:17.336Z,51.50
2023-04-01T02:36:17.386Z,52.30
2023-04-01T02:37:17.331Z,50.40
2023-04-01T02:38:17.340Z,50.60
2023-04-01T02:39:17.332Z,52.10
2023-04-01T02:40:17.326Z,52.10
2023-04-01T02:41:17.327Z,51.80
2023-04-01T02:42:17.344Z,51.10
2023-04-01T02:43:17.349Z,50.90
2023-04-01T02:44:17.322Z,51.20
2023-04-01T02:45:17.322Z,51.20
2023-04-01T02:46:17.385Z,50.80
2023-04-01T02:47:17.317Z,50.50
2023-04-01T02:48:17.320Z,50.70
2023-04-01T02:49:17.312Z,50.20
2023-04-01T02:50:17.320Z,53.10
2023-04-01T02:51:18.370Z,54.10
2023-04-01T02:52:17.318Z,53.40
2023-04-01T02:53:17.310Z,53.80
2023-04-01T02:54:17.311Z,53.70
2023-04-01T02:55:17.303Z,53.90
2023-04-01T02:56:17.306Z,53.30
2023-04-01T02:57:17.384Z,54.00
2023-04-01T02:58:17.301Z,53.90
2023-04-01T02:59:17.344Z,53.70
2023-04-01T03:00:17.333Z,55.10
2023-04-01T03:01:17.324Z,54.60
2023-04-01T03:02:17.326Z,54.50
2023-04-01T03:03:17.372Z,53.40
2023-04-01T03:04:17.292Z,53.40
2023-04-01T03:05:17.284Z,53.10
2023-04-01T03:06:17.301Z,51.60
2023-04-01T03:07:17.311Z,53.20
2023-04-01T03:08:17.290Z,53.20
2023-04-01T03:09:17.283Z,51.90
2023-04-01T03:10:17.280Z,52.90
2023-04-01T03:11:17.282Z,51.10
2023-04-01T03:12:17.282Z,50.90
2023-04-01T03:13:17.278Z,48.20
2023-04-01T03:14:17.277Z,48.50
2023-04-01T03:15:17.296Z,47.20
2023-04-01T03:16:17.304Z,48.30
2023-04-01T03:17:17.268Z,49.40
2023-04-01T03:18:17.272Z,48.30
2023-04-01T03:19:17.263Z,48.80
2023-04-01T03:20:17.272Z,47.80
2023-04-01T03:21:17.264Z,46.30
2023-04-01T03:22:17.258Z,49.60
2023-04-01T03:23:17.258Z,49.50
2023-04-01T03:24:17.257Z,49.70
2023-04-01T03:25:17.258Z,48.00
2023-04-01T03:26:17.269Z,48.40
2023-04-01T03:27:17.247Z,47.90
2023-04-01T03:28:17.251Z,47.90
2023-04-01T03:29:17.268Z,47.20
2023-04-01T03:30:17.304Z,49.10
2023-04-01T03:31:17.372Z,48.90
2023-04-01T03:32:17.243Z,49.10
2023-04-01T03:33:17.238Z,47.40
2023-04-01T03:34:17.239Z,48.80
2023-04-01T03:35:17.234Z,50.60
2023-04-01T03:36:17.276Z,49.70
2023-04-01T03:37:17.232Z,47.70
2023-04-01T03:38:17.234Z,47.20
2023-04-01T03:39:17.231Z,48.50
2023-04-01T03:40:17.232Z,48.40
2023-04-01T03:41:17.229Z,47.30
2023-04-01T03:42:17.229Z,48.00
2023-04-01T03:43:17.294Z,48.80
2023-04-01T03:44:17.226Z,49.50
2023-04-01T03:45:17.217Z,50.50
2023-04-01T03:46:17.241Z,52.90
2023-04-01T03:47:17.242Z,51.40
2023-04-01T03:48:17.219Z,50.10
2023-04-01T03:49:17.213Z,53.40
2023-04-01T03:50:17.214Z,50.80
2023-04-01T03:51:17.209Z,51.30
2023-04-01T03:52:17.209Z,53.00
2023-04-01T03:53:17.215Z,52.20
2023-04-01T03:54:17.216Z,51.00
2023-04-01T03:55:17.207Z,51.60
2023-04-01T03:56:17.210Z,51.00
2023-04-01T03:57:17.230Z,50.80
2023-04-01T03:58:17.202Z,50.20
2023-04-01T03:59:17.202Z,47.90
2023-04-01T04:00:17.203Z,48.40
2023-04-01T04:01:17.211Z,48.50
2023-04-01T04:02:17.215Z,48.20
2023-04-01T04:03:17.304Z,49.20
2023-04-01T04:04:17.225Z,51.00
2023-04-01T04:05:17.200Z,47.20
2023-04-01T04:06:17.191Z,48.00
2023-04-01T04:07:17.188Z,48.10
2023-04-01T04:08:17.190Z,46.80
2023-04-01T04:09:17.187Z,47.40
2023-04-01T04:10:59.726Z,45.80
2023-04-01T04:11:59.726Z,47.50
2023-04-01T04:12:59.735Z,45.20
2023-04-01T04:13:59.728Z,46.70
2023-04-01T04:16:22.412Z,45.70
2023-04-01T04:17:22.775Z,45.30
2023-04-01T04:18:25.994Z,45.20
2023-04-01T04:23:51.045Z,45.50
2023-04-01T04:27:36.286Z,45.90
2023-04-01T04:28:36.283Z,45.00
2023-04-01T04:29:36.292Z,44.80
2023-04-01T04:30:36.272Z,46.30
2023-04-01T04:31:36.314Z,44.10
2023-04-01T04:32:36.294Z,44.70
2023-04-01T04:33:36.318Z,44.20
2023-04-01T04:34:36.276Z,44.40
2023-04-01T04:35:36.298Z,43.80
2023-04-01T04:36:36.263Z,44.80
2023-04-01T04:37:36.257Z,44.40
2023-04-01T04:38:36.261Z,44.40
2023-04-01T04:39:36.265Z,44.50
2023-04-01T04:40:36.254Z,42.80
2023-04-01T04:41:37.708Z,41.80
2023-04-01T04:42:36.255Z,41.30
2023-04-01T04:43:36.247Z,40.00
2023-04-01T04:44:36.253Z,40.40
2023-04-01T04:45:36.247Z,41.10
2023-04-01T04:46:36.269Z,40.70
2023-04-01T04:47:36.274Z,41.80
2023-04-01T04:48:36.242Z,41.80
2023-04-01T04:49:36.273Z,42.80
2023-04-01T04:50:36.237Z,41.00
2023-04-01T04:51:36.236Z,40.90
2023-04-01T04:52:36.237Z,40.50
2023-04-01T04:53:36.242Z,41.40
2023-04-01T04:54:36.239Z,42.70
2023-04-01T04:55:36.231Z,42.60
2023-04-01T04:56:36.247Z,43.10
2023-04-01T04:57:36.284Z,42.90
2023-04-01T04:58:36.227Z,44.00
2023-04-01T04:59:36.226Z,43.30
2023-04-01T05:00:36.235Z,42.60
2023-04-01T05:01:36.271Z,41.90
2023-04-01T05:02:36.356Z,43.10
2023-04-01T05:03:36.329Z,41.60
2023-04-01T05:04:36.222Z,41.60
2023-04-01T05:05:36.237Z,41.80
2023-04-01T05:06:36.209Z,42.20
2023-04-01T05:07:36.208Z,41.80
2023-04-01T05:08:36.207Z,41.40
2023-04-01T05:09:36.218Z,41.40
2023-04-01T05:10:36.204Z,40.20
2023-04-01T05:11:36.211Z,39.50
2023-04-01T05:12:36.209Z,40.60
2023-04-01T05:13:36.203Z,40.10
2023-04-01T05:14:36.200Z,40.30
2023-04-01T05:15:36.196Z,40.80
2023-04-01T05:16:36.214Z,40.40
2023-04-01T05:17:36.229Z,39.80
2023-04-01T05:18:36.192Z,40.20
2023-04-01T05:19:36.200Z,40.50
2023-04-01T05:20:36.268Z,40.60
2023-04-01T05:21:36.212Z,40.60
2023-04-01T05:22:36.189Z,41.90
2023-04-01T05:23:36.191Z,41.00
2023-04-01T05:24:36.185Z,40.30
2023-04-01T05:25:36.184Z,43.80
2023-04-01T05:26:36.182Z,47.90
2023-04-01T05:27:36.183Z,47.10
2023-04-01T05:28:36.180Z,49.80
2023-04-01T05:29:36.173Z,49.70
2023-04-01T05:30:36.221Z,48.10
2023-04-01T05:31:36.187Z,48.70
2023-04-01T05:32:36.212Z,47.40
2023-04-01T05:33:36.176Z,47.00
2023-04-01T05:34:36.168Z,49.10
2023-04-01T05:35:36.400Z,46.60
2023-04-01T05:36:36.169Z,48.50
2023-04-01T05:37:36.189Z,46.40
2023-04-01T05:38:36.164Z,45.90
2023-04-01T05:39:36.171Z,46.30
2023-04-01T05:40:36.162Z,46.80
2023-04-01T05:41:36.164Z,45.90
2023-04-01T05:42:37.717Z,47.00
2023-04-01T05:43:36.161Z,46.20
2023-04-01T05:44:36.152Z,45.20
2023-04-01T05:45:36.158Z,45.30
2023-04-01T05:46:36.243Z,45.30
2023-04-01T05:47:36.201Z,44.20
2023-04-01T05:48:36.174Z,43.60
2023-04-01T05:49:36.156Z,45.60
2023-04-01T05:50:36.148Z,42.90
2023-04-01T05:51:36.151Z,44.80
2023-04-01T05:52:36.158Z,45.70
2023-04-01T05:53:36.161Z,44.70
2023-04-01T05:54:36.141Z,46.00
2023-04-01T05:55:36.143Z,45.70
2023-04-01T05:56:36.137Z,45.10
2023-04-01T05:57:36.234Z,43.50
2023-04-01T05:58:36.132Z,45.30
2023-04-01T05:59:36.135Z,44.30
2023-04-01T06:00:36.131Z,43.60
2023-04-01T06:01:36.131Z,43.00
2023-04-01T06:02:36.185Z,45.30
2023-04-01T06:03:36.252Z,43.90
2023-04-01T06:04:36.163Z,42.40
2023-04-01T06:05:36.124Z,42.40
2023-04-01T06:06:36.125Z,42.30
2023-04-01T06:07:36.123Z,40.10
2023-04-01T06:08:36.118Z,40.40
2023-04-01T06:09:36.137Z,40.30
2023-04-01T06:10:36.114Z,40.80
2023-04-01T06:11:36.114Z,39.30
2023-04-01T06:12:36.112Z,39.60
2023-04-01T06:13:36.115Z,39.20
2023-04-01T06:14:36.106Z,39.70
2023-04-01T06:15:36.109Z,39.60
2023-04-01T06:16:36.136Z,38.50
2023-04-01T06:17:36.122Z,39.00
2023-04-01T06:18:36.115Z,38.50
2023-04-01T06:19:36.116Z,39.80
2023-04-01T06:20:36.121Z,38.70
2023-04-01T06:21:36.152Z,40.00
2023-04-01T06:22:36.108Z,40.80
2023-04-01T06:23:36.104Z,40.60
2023-04-01T06:24:36.119Z,41.50
2023-04-01T06:25:36.330Z,39.90
2023-04-01T06:26:36.093Z,38.60
2023-04-01T06:27:36.103Z,37.70
2023-04-01T06:28:36.089Z,40.20
2023-04-01T06:29:36.124Z,40.40
2023-04-01T06:30:36.120Z,40.70
2023-04-01T06:31:36.131Z,40.30
2023-04-01T06:32:36.159Z,39.20
2023-04-01T06:33:36.096Z,39.70
2023-04-01T06:34:36.075Z,40.50
2023-04-01T06:35:36.437Z,39.90
2023-04-01T06:36:36.154Z,39.50
2023-04-01T06:37:36.096Z,40.20
2023-04-01T06:38:36.075Z,41.10
2023-04-01T06:39:36.082Z,39.80
2023-04-01T06:40:36.079Z,39.70
2023-04-01T06:41:36.102Z,39.60
2023-04-01T06:42:36.070Z,44.80
2023-04-01T06:43:36.075Z,45.40
2023-04-01T06:44:36.074Z,45.70
2023-04-01T06:45:36.404Z,45.50
2023-04-01T06:46:36.063Z,44.30
2023-04-01T06:47:36.114Z,46.70
2023-04-01T06:48:36.069Z,45.00
2023-04-01T06:49:36.063Z,44.80
2023-04-01T06:50:36.058Z,46.10
2023-04-01T06:51:36.062Z,46.00
2023-04-01T06:52:36.057Z,47.50
2023-04-01T06:53:36.067Z,47.80
2023-04-01T06:54:36.056Z,49.20
2023-04-01T06:55:36.059Z,49.60
2023-04-01T06:56:36.055Z,49.20
2023-04-01T06:57:36.083Z,48.60
2023-04-01T06:58:36.049Z,47.80
2023-04-01T06:59:36.083Z,48.10
2023-04-01T07:00:36.065Z,48.70
2023-04-01T07:01:36.071Z,45.10
2023-04-01T07:02:36.072Z,43.60
2023-04-01T07:03:36.054Z,46.00
2023-04-01T07:04:36.102Z,44.50
2023-04-01T07:05:36.040Z,48.00
2023-04-01T07:06:36.034Z,47.80
2023-04-01T07:13:53.550Z,48.20
2023-04-01T07:14:53.525Z,49.20
2023-04-01T07:17:36.857Z,48.90
2023-04-01T07:19:54.447Z,45.30
2023-04-01T07:20:54.440Z,44.40
2023-04-01T07:21:54.434Z,45.30
2023-04-01T07:22:54.429Z,45.70
2023-04-01T07:23:54.429Z,45.60
2023-04-01T07:44:39.139Z,46.00
2023-04-01T07:46:30.892Z,44.20
2023-04-01T07:47:30.920Z,45.10
2023-04-01T07:48:30.873Z,43.70
2023-04-01T07:49:30.871Z,44.70
2023-04-01T07:50:30.881Z,43.30
2023-04-01T07:51:30.866Z,43.50
2023-04-01T07:52:30.878Z,45.00
2023-04-01T07:53:30.870Z,44.10
2023-04-01T07:54:30.862Z,44.20
2023-04-01T08:00:15.098Z,42.40
2023-04-01T08:02:17.689Z,38.80
2023-04-01T08:03:18.076Z,38.30
2023-04-01T08:04:17.743Z,40.80
2023-04-01T08:05:17.646Z,38.80
2023-04-01T08:06:17.653Z,40.10
2023-04-01T08:07:17.646Z,39.10
2023-04-01T08:08:17.644Z,40.90
2023-04-01T08:09:17.647Z,39.40
2023-04-01T08:10:17.642Z,39.30
2023-04-01T08:11:17.662Z,39.10
2023-04-01T08:12:17.638Z,37.90
2023-04-01T08:13:17.777Z,37.20
2023-04-01T08:14:17.634Z,37.50
2023-04-01T08:15:17.635Z,37.40
2023-04-01T08:16:17.738Z,37.10
2023-04-01T08:17:17.641Z,37.00
2023-04-01T08:18:17.664Z,38.40
2023-04-01T08:19:17.627Z,35.40
2023-04-01T08:20:17.629Z,36.90
2023-04-01T08:21:17.625Z,36.70
2023-04-01T08:22:17.624Z,37.10
2023-04-01T08:23:17.617Z,36.10
2023-04-01T08:24:17.621Z,36.80
2023-04-01T08:25:17.616Z,37.90
2023-04-01T08:26:17.616Z,37.30
2023-04-01T08:27:17.612Z,36.50
2023-04-01T08:28:17.616Z,36.60
2023-04-01T08:29:17.612Z,36.30
2023-04-01T08:30:17.626Z,35.40
2023-04-01T08:31:17.617Z,42.30
2023-04-01T08:32:17.635Z,41.60
2023-04-01T08:33:17.611Z,40.30
2023-04-01T08:34:17.630Z,42.10
2023-04-01T08:35:17.611Z,41.10
2023-04-01T08:36:17.662Z,40.90
2023-04-01T08:37:17.600Z,41.60
2023-04-01T08:38:17.599Z,42.00
2023-04-01T08:39:17.602Z,41.80
2023-04-01T08:40:17.599Z,42.30
2023-04-01T08:41:17.601Z,41.70
2023-04-01T08:42:17.596Z,41.80
2023-04-01T08:43:17.594Z,42.80
2023-04-01T08:44:17.598Z,41.00
2023-04-01T08:45:17.594Z,43.10
2023-04-01T08:46:17.643Z,41.70
2023-04-01T08:47:17.586Z,43.00
2023-04-01T08:48:17.615Z,41.50
2023-04-01T08:49:17.585Z,43.70
2023-04-01T08:50:17.588Z,41.90
2023-04-01T08:51:17.629Z,41.40
2023-04-01T08:52:17.587Z,40.60
2023-04-01T08:53:17.581Z,42.60
2023-04-01T08:54:17.579Z,42.10
2023-04-01T08:55:17.586Z,42.60
2023-04-01T08:56:17.583Z,42.20
2023-04-01T08:57:17.686Z,41.90
2023-04-01T08:58:17.576Z,41.50
2023-04-01T08:59:17.573Z,40.60
2023-04-01T09:00:17.576Z,42.20
2023-04-01T09:01:17.573Z,41.40
2023-04-01T09:02:17.612Z,42.90
2023-04-01T09:03:17.636Z,41.10
2023-04-01T09:04:17.656Z,41.50
2023-04-01T09:05:17.570Z,40.90
2023-04-01T09:06:17.574Z,39.30
2023-04-01T09:07:17.567Z,41.20
2023-04-01T09:08:17.573Z,40.30
2023-04-01T09:09:17.562Z,38.10
2023-04-01T09:10:17.569Z,38.70
2023-04-01T09:11:17.559Z,37.20
2023-04-01T09:12:17.558Z,36.30
2023-04-01T09:13:17.564Z,36.60
2023-04-01T09:14:17.561Z,36.30
2023-04-01T09:15:17.554Z,36.90
2023-04-01T09:16:17.605Z,36.50
2023-04-01T09:17:17.551Z,36.70
2023-04-01T09:18:17.553Z,37.00
2023-04-01T09:19:17.562Z,36.00
2023-04-01T09:20:17.573Z,38.20
2023-04-01T09:21:17.548Z,37.50
2023-04-01T09:22:17.549Z,37.50
2023-04-01T09:23:17.546Z,37.60
2023-04-01T09:24:17.552Z,37.90
2023-04-01T09:25:17.557Z,38.10
2023-04-01T09:26:17.551Z,36.70
2023-04-01T09:27:17.589Z,38.50
2023-04-01T09:28:17.548Z,38.10
2023-04-01T09:29:17.555Z,38.30
2023-04-01T09:30:17.548Z,37.80
2023-04-01T09:31:17.578Z,38.20
2023-04-01T09:32:17.545Z,37.70
2023-04-01T09:33:17.547Z,38.00
2023-04-01T09:34:17.547Z,38.10
2023-04-01T09:35:17.538Z,38.30
2023-04-01T09:36:17.619Z,38.40
2023-04-01T09:37:17.544Z,38.80
2023-04-01T09:38:17.543Z,38.30
2023-04-01T09:39:17.535Z,40.20
2023-04-01T09:40:17.546Z,38.40
2023-04-01T09:41:17.534Z,39.00
2023-04-01T09:42:17.533Z,37.60
2023-04-01T09:43:17.541Z,38.40
2023-04-01T09:44:17.529Z,38.60
2023-04-01T09:45:17.525Z,38.90
2023-04-01T09:46:17.577Z,37.80
2023-04-01T09:47:17.526Z,36.40
2023-04-01T09:48:17.535Z,36.90
2023-04-01T09:49:17.529Z,35.50
2023-04-01T09:50:17.528Z,37.00
2023-04-01T09:51:17.522Z,36.90
2023-04-01T09:52:17.551Z,38.90
2023-04-01T09:53:17.521Z,38.40
2023-04-01T09:54:17.519Z,38.70
2023-04-01T09:55:17.512Z,39.10
2023-04-01T09:56:17.516Z,37.70
2023-04-01T09:57:17.677Z,37.70
2023-04-01T09:58:17.522Z,38.40
2023-04-01T09:59:17.511Z,37.80
2023-04-01T10:00:17.509Z,43.10
2023-04-01T10:01:17.553Z,42.00
2023-04-01T10:02:17.511Z,41.50
2023-04-01T10:03:17.501Z,41.90
2023-04-01T10:04:17.506Z,41.80
2023-04-01T10:05:17.524Z,42.60
2023-04-01T10:06:17.561Z,41.60
2023-04-01T10:07:17.512Z,41.90
2023-04-01T10:08:17.518Z,44.10
2023-04-01T10:09:17.495Z,42.50
2023-04-01T10:10:17.646Z,43.20
2023-04-01T10:11:17.491Z,41.00
2023-04-01T10:12:17.629Z,42.10
2023-04-01T10:13:17.491Z,42.10
2023-04-01T10:14:17.498Z,42.60
2023-04-01T10:15:17.506Z,44.10
2023-04-01T10:16:17.536Z,43.20
2023-04-01T10:17:17.487Z,42.40
2023-04-01T10:18:17.522Z,42.20
2023-04-01T10:19:17.531Z,42.70
2023-04-01T10:20:17.543Z,42.10
2023-04-01T10:21:17.481Z,42.20
2023-04-01T10:22:17.487Z,40.30
2023-04-01T10:23:17.482Z,42.80
2023-04-01T10:24:17.500Z,41.40
2023-04-01T10:25:17.501Z,40.90
2023-04-01T10:26:17.476Z,41.10
2023-04-01T10:27:17.473Z,41.10
2023-04-01T10:28:17.471Z,41.60
2023-04-01T10:29:17.752Z,41.80
2023-04-01T10:30:17.472Z,41.60
2023-04-01T10:31:17.487Z,40.00
2023-04-01T10:32:17.492Z,39.90
2023-04-01T10:33:17.475Z,39.20
2023-04-01T10:34:17.470Z,39.20
2023-04-01T10:35:17.469Z,40.10
2023-04-01T10:36:17.557Z,37.20
2023-04-01T10:37:17.469Z,36.90
2023-04-01T10:38:17.465Z,37.20
2023-04-01T10:39:17.456Z,35.60
2023-04-01T10:40:17.505Z,36.00
2023-04-01T10:41:17.478Z,36.20
2023-04-01T10:42:17.454Z,37.00
2023-04-01T10:43:17.464Z,36.80
2023-04-01T10:44:17.456Z,36.60
2023-04-01T10:45:17.457Z,36.90
2023-04-01T10:46:17.608Z,37.90
2023-04-01T10:47:17.478Z,37.50
2023-04-01T10:48:17.453Z,38.40
2023-04-01T10:49:17.445Z,39.20
2023-04-01T10:50:17.452Z,36.30
2023-04-01T10:51:17.444Z,37.90
2023-04-01T10:52:17.452Z,35.90
2023-04-01T10:53:17.441Z,36.50
2023-04-01T10:54:17.470Z,35.80
2023-04-01T10:55:17.442Z,36.10
2023-04-01T10:56:17.462Z,36.40
2023-04-01T10:57:17.495Z,36.90
2023-04-01T10:58:17.444Z,36.30
2023-04-01T10:59:17.439Z,36.10
2023-04-01T11:00:17.439Z,35.60
2023-04-01T11:01:17.485Z,36.80
2023-04-01T11:02:17.486Z,36.50
2023-04-01T11:03:17.542Z,36.50
2023-04-01T11:04:17.436Z,36.70
2023-04-01T11:05:20.211Z,36.60
2023-04-01T11:06:17.441Z,36.30
2023-04-01T11:07:17.428Z,38.00
2023-04-01T11:08:17.429Z,38.20
2023-04-01T11:09:17.432Z,37.60
2023-04-01T11:10:17.424Z,37.10
2023-04-01T11:11:17.429Z,38.60
2023-04-01T11:12:17.449Z,36.60
2023-04-01T11:13:17.420Z,39.10
2023-04-01T11:14:17.426Z,39.20
2023-04-01T11:15:17.416Z,39.30
2023-04-01T11:16:18.610Z,39.10
2023-04-01T11:17:17.433Z,39.60
2023-04-01T11:18:17.421Z,37.70
2023-04-01T11:19:17.413Z,38.20
2023-04-01T11:20:17.418Z,38.00
2023-04-01T11:21:17.408Z,38.20
2023-04-01T11:22:17.413Z,39.00
2023-04-01T11:23:17.407Z,38.40
2023-04-01T11:24:17.410Z,37.80
2023-04-01T11:25:17.409Z,38.60
2023-04-01T11:26:17.407Z,38.50
2023-04-01T11:27:17.479Z,37.80
2023-04-01T11:28:17.427Z,37.80
2023-04-01T11:29:17.401Z,38.50
2023-04-01T11:30:17.408Z,38.60
2023-04-01T11:31:17.448Z,38.40
2023-04-01T11:32:17.406Z,37.60
2023-04-01T11:33:20.058Z,38.30
2023-04-01T11:34:17.395Z,36.70
2023-04-01T11:35:17.392Z,39.70
2023-04-01T11:36:17.483Z,43.20
2023-04-01T11:37:17.390Z,45.50
2023-04-01T11:38:17.397Z,45.70
2023-04-01T11:39:17.390Z,44.00
2023-04-01T11:40:17.391Z,44.20
2023-04-01T11:41:17.390Z,45.10
2023-04-01T11:42:17.388Z,42.00
2023-04-01T11:43:30.078Z,42.20
2023-04-01T11:44:17.425Z,43.70
2023-04-01T11:45:17.381Z,45.60
2023-04-01T11:46:17.429Z,45.70
2023-04-01T11:47:17.381Z,45.80
2023-04-01T11:48:17.377Z,45.60
2023-04-01T11:49:17.374Z,43.60
2023-04-01T11:50:17.376Z,44.70
2023-04-01T11:51:17.388Z,44.00
2023-04-01T11:52:17.385Z,45.30
2023-04-01T11:53:17.368Z,44.80
2023-04-01T11:54:17.372Z,42.30
2023-04-01T11:55:17.379Z,44.40
2023-04-01T11:56:17.376Z,42.60
2023-04-01T11:57:17.436Z,45.80
2023-04-01T11:58:17.366Z,45.00
2023-04-01T11:59:17.364Z,44.90
2023-04-01T12:00:17.396Z,45.60
2023-04-01T12:01:17.356Z,44.60
2023-04-01T12:02:19.299Z,42.80
2023-04-01T12:03:17.657Z,42.70
2023-04-01T12:04:17.417Z,42.10
2023-04-01T12:05:17.353Z,42.40
2023-04-01T12:06:17.355Z,41.90
2023-04-01T12:07:17.364Z,40.10
2023-04-01T12:08:17.355Z,39.30
2023-04-01T12:09:17.349Z,38.80
2023-04-01T12:10:17.351Z,39.50
2023-04-01T12:11:17.357Z,37.60
2023-04-01T12:12:17.358Z,39.70
2023-04-01T12:13:17.342Z,38.60
2023-04-01T12:14:17.349Z,39.30
2023-04-01T12:15:17.348Z,38.80
2023-04-01T12:16:17.410Z,37.70
2023-04-01T12:17:17.342Z,38.30
2023-04-01T12:18:17.339Z,38.80
2023-04-01T12:19:17.337Z,37.10
2023-04-01T12:20:17.336Z,39.20
2023-04-01T12:21:17.340Z,37.30
2023-04-01T12:22:17.340Z,38.70
2023-04-01T12:23:17.331Z,37.90
2023-04-01T12:24:17.328Z,39.00
2023-04-01T12:25:17.342Z,39.20
2023-04-01T12:26:17.320Z,38.70
2023-04-01T12:27:17.326Z,38.50
2023-04-01T12:28:17.323Z,38.80
2023-04-01T12:29:17.326Z,39.10
2023-04-01T12:30:17.317Z,38.50
2023-04-01T12:31:17.325Z,40.10
2023-04-01T12:32:17.420Z,39.90
2023-04-01T12:33:17.328Z,38.50
2023-04-01T12:34:17.312Z,38.70
2023-04-01T12:35:17.327Z,39.00
2023-04-01T12:36:17.307Z,39.10
2023-04-01T12:37:17.309Z,39.50
2023-04-01T12:38:17.880Z,39.60
2023-04-01T12:39:17.308Z,39.30
2023-04-01T12:40:17.304Z,39.50
2023-04-01T12:41:17.305Z,39.10
2023-04-01T12:42:17.300Z,39.50
2023-04-01T12:43:17.306Z,39.40
2023-04-01T12:44:17.301Z,40.20
2023-04-01T12:45:17.298Z,39.00
2023-04-01T12:46:17.328Z,39.70
2023-04-01T12:47:17.296Z,42.20
2023-04-01T12:48:17.324Z,39.80
2023-04-01T12:49:17.307Z,40.20
2023-04-01T12:50:17.308Z,39.90
2023-04-01T12:51:17.294Z,40.70
2023-04-01T12:52:17.284Z,40.80
2023-04-01T12:53:17.288Z,40.10
2023-04-01T12:54:17.288Z,39.80
2023-04-01T12:55:17.283Z,38.00
2023-04-01T12:56:17.275Z,40.20
2023-04-01T12:57:17.332Z,38.40
2023-04-01T12:58:17.276Z,40.60
2023-04-01T12:59:17.280Z,39.00
2023-04-01T13:00:17.276Z,39.50
2023-04-01T13:01:17.381Z,38.60
2023-04-01T13:02:17.267Z,39.60
2023-04-01T13:03:17.273Z,38.70
2023-04-01T13:04:17.326Z,38.70
2023-04-01T13:05:17.270Z,39.00
2023-04-01T13:06:19.128Z,37.60
2023-04-01T13:07:17.262Z,38.70
2023-04-01T13:08:17.276Z,39.00
2023-04-01T13:09:17.259Z,38.90
2023-04-01T13:10:17.261Z,39.90
2023-04-01T13:11:17.257Z,39.50
2023-04-01T13:12:17.350Z,39.60
2023-04-01T13:13:17.304Z,41.10
2023-04-01T13:14:29.171Z,40.80
2023-04-01T13:15:17.256Z,40.00
2023-04-01T13:16:17.289Z,40.60
2023-04-01T13:17:17.252Z,40.00
2023-04-01T13:18:17.247Z,40.50
2023-04-01T13:19:17.250Z,41.30
2023-04-01T13:20:17.274Z,40.80
2023-04-01T13:21:17.240Z,42.30
2023-04-01T13:22:17.238Z,40.80
2023-04-01T13:23:17.236Z,40.40
2023-04-01T13:24:17.232Z,39.30
2023-04-01T13:25:17.237Z,50.70
2023-04-01T13:26:17.237Z,47.40
2023-04-01T13:27:17.237Z,48.40
2023-04-01T13:28:17.251Z,49.60
2023-04-01T13:29:17.226Z,48.40
2023-04-01T13:30:17.230Z,46.80
2023-04-01T13:31:17.277Z,46.00
2023-04-01T13:32:17.236Z,46.00
2023-04-01T13:33:17.375Z,48.10
2023-04-01T13:34:17.221Z,47.60
2023-04-01T13:35:17.229Z,47.40
2023-04-01T13:36:17.265Z,45.70
2023-04-01T13:37:17.224Z,45.10